sensor_id;sensor_type;location;lat;lon;timestamp;P1;durP1;ratioP1;P2;durP2;ratioP2
53549;SDS011;73079;52.914;-0.982;2024-01-10T00:01:56;6.55;;;2.17;;
53549;SDS011;73079;52.914;-0.982;2024-01-10T00:04:21;16.85;;;2.70;;
53549;SDS011;73079;52.914;-0.982;2024-01-10T00:06:49;7.50;;;2.58;;
53549;SDS011;73079;52.914;-0.982;2024-01-10T00:09:14;10.15;;;2.95;;
53549;SDS011;73079;52.914;-0.982;2024-01-10T00:11:40;5.50;;;1.77;;
53549;SDS011;73079;52.914;-0.982;2024-01-10T00:14:06;9.05;;;2.38;;
53549;SDS011;73079;52.914;-0.982;2024-01-10T00:16:32;6.53;;;1.92;;
53549;SDS011;73079;52.914;-0.982;2024-01-10T00:18:57;12.20;;;3.08;;
53549;SDS011;73079;52.914;-0.982;2024-01-10T00:21:23;9.30;;;2.55;;
53549;SDS011;73079;52.914;-0.982;2024-01-10T00:23:50;12.07;;;2.78;;
53549;SDS011;73079;52.914;-0.982;2024-01-10T00:26:16;3.97;;;1.75;;
53549;SDS011;73079;52.914;-0.982;2024-01-10T00:28:42;4.50;;;2.00;;
53549;SDS011;73079;52.914;-0.982;2024-01-10T00:31:08;9.77;;;2.20;;
53549;SDS011;73079;52.914;-0.982;2024-01-10T00:33:33;14.57;;;2.30;;
53549;SDS011;73079;52.914;-0.982;2024-01-10T00:35:59;11.35;;;2.30;;
53549;SDS011;73079;52.914;-0.982;2024-01-10T00:38:26;5.70;;;2.05;;
53549;SDS011;73079;52.914;-0.982;2024-01-10T00:40:53;7.60;;;1.92;;
53549;SDS011;73079;52.914;-0.982;2024-01-10T00:43:19;10.35;;;2.40;;
53549;SDS011;73079;52.914;-0.982;2024-01-10T00:45:44;10.55;;;2.42;;
53549;SDS011;73079;52.914;-0.982;2024-01-10T00:48:10;7.97;;;1.98;;
53549;SDS011;73079;52.914;-0.982;2024-01-10T00:50:36;8.30;;;2.20;;
53549;SDS011;73079;52.914;-0.982;2024-01-10T00:53:02;8.27;;;2.17;;
53549;SDS011;73079;52.914;-0.982;2024-01-10T00:55:27;9.40;;;1.88;;
53549;SDS011;73079;52.914;-0.982;2024-01-10T00:57:54;9.13;;;2.10;;
53549;SDS011;73079;52.914;-0.982;2024-01-10T01:00:20;7.72;;;2.33;;
53549;SDS011;73079;52.914;-0.982;2024-01-10T01:02:46;9.10;;;2.40;;
53549;SDS011;73079;52.914;-0.982;2024-01-10T01:05:12;5.47;;;2.15;;
53549;SDS011;73079;52.914;-0.982;2024-01-10T01:07:37;8.63;;;2.08;;
53549;SDS011;73079;52.914;-0.982;2024-01-10T01:10:03;9.57;;;2.38;;
53549;SDS011;73079;52.914;-0.982;2024-01-10T01:12:29;10.13;;;2.47;;
53549;SDS011;73079;52.914;-0.982;2024-01-10T01:14:57;5.07;;;1.92;;
53549;SDS011;73079;52.914;-0.982;2024-01-10T01:17:22;15.10;;;2.78;;
53549;SDS011;73079;52.914;-0.982;2024-01-10T01:19:48;11.48;;;2.40;;
53549;SDS011;73079;52.914;-0.982;2024-01-10T01:22:14;11.25;;;2.53;;
53549;SDS011;73079;52.914;-0.982;2024-01-10T01:24:39;6.38;;;2.28;;
53549;SDS011;73079;52.914;-0.982;2024-01-10T01:27:05;10.25;;;1.92;;
53549;SDS011;73079;52.914;-0.982;2024-01-10T01:29:31;2.33;;;1.48;;
53549;SDS011;73079;52.914;-0.982;2024-01-10T01:31:58;7.95;;;2.05;;
53549;SDS011;73079;52.914;-0.982;2024-01-10T01:34:24;8.52;;;2.03;;
53549;SDS011;73079;52.914;-0.982;2024-01-10T01:36:50;4.55;;;1.98;;
53549;SDS011;73079;52.914;-0.982;2024-01-10T01:39:17;5.60;;;2.03;;
53549;SDS011;73079;52.914;-0.982;2024-01-10T01:41:43;8.95;;;2.22;;
53549;SDS011;73079;52.914;-0.982;2024-01-10T01:44:09;9.25;;;2.28;;
53549;SDS011;73079;52.914;-0.982;2024-01-10T01:46:35;10.38;;;1.98;;
53549;SDS011;73079;52.914;-0.982;2024-01-10T01:49:03;5.03;;;1.77;;
53549;SDS011;73079;52.914;-0.982;2024-01-10T01:51:29;3.25;;;1.80;;
53549;SDS011;73079;52.914;-0.982;2024-01-10T01:53:57;8.68;;;1.88;;
53549;SDS011;73079;52.914;-0.982;2024-01-10T01:56:23;5.57;;;2.20;;
53549;SDS011;73079;52.914;-0.982;2024-01-10T01:58:49;7.82;;;2.20;;
53549;SDS011;73079;52.914;-0.982;2024-01-10T02:01:16;5.38;;;2.10;;
53549;SDS011;73079;52.914;-0.982;2024-01-10T02:03:47;1.70;;;1.40;;
53549;SDS011;73079;52.914;-0.982;2024-01-10T02:06:14;5.65;;;2.00;;
53549;SDS011;73079;52.914;-0.982;2024-01-10T02:08:40;13.25;;;2.08;;
53549;SDS011;73079;52.914;-0.982;2024-01-10T02:11:06;5.85;;;1.83;;
53549;SDS011;73079;52.914;-0.982;2024-01-10T02:13:32;5.07;;;2.20;;
53549;SDS011;73079;52.914;-0.982;2024-01-10T02:15:58;6.25;;;2.38;;
53549;SDS011;73079;52.914;-0.982;2024-01-10T02:18:24;9.02;;;2.10;;
53549;SDS011;73079;52.914;-0.982;2024-01-10T02:20:50;10.40;;;2.30;;
53549;SDS011;73079;52.914;-0.982;2024-01-10T02:23:18;5.60;;;1.33;;
53549;SDS011;73079;52.914;-0.982;2024-01-10T02:25:45;5.18;;;1.65;;
53549;SDS011;73079;52.914;-0.982;2024-01-10T02:28:11;5.95;;;2.22;;
53549;SDS011;73079;52.914;-0.982;2024-01-10T02:30:37;5.40;;;2.10;;
53549;SDS011;73079;52.914;-0.982;2024-01-10T02:33:03;5.20;;;1.50;;
53549;SDS011;73079;52.914;-0.982;2024-01-10T02:35:29;4.88;;;2.15;;
53549;SDS011;73079;52.914;-0.982;2024-01-10T02:37:58;4.93;;;1.52;;
53549;SDS011;73079;52.914;-0.982;2024-01-10T02:40:24;8.32;;;2.20;;
53549;SDS011;73079;52.914;-0.982;2024-01-10T02:42:51;4.18;;;2.15;;
53549;SDS011;73079;52.914;-0.982;2024-01-10T02:45:17;8.32;;;1.95;;
53549;SDS011;73079;52.914;-0.982;2024-01-10T02:47:42;10.15;;;2.20;;
53549;SDS011;73079;52.914;-0.982;2024-01-10T02:50:09;8.50;;;2.15;;
53549;SDS011;73079;52.914;-0.982;2024-01-10T02:52:35;6.63;;;1.98;;
53549;SDS011;73079;52.914;-0.982;2024-01-10T02:55:00;4.60;;;1.73;;
53549;SDS011;73079;52.914;-0.982;2024-01-10T02:57:26;9.40;;;2.38;;
53549;SDS011;73079;52.914;-0.982;2024-01-10T02:59:53;7.53;;;2.13;;
53549;SDS011;73079;52.914;-0.982;2024-01-10T03:02:19;6.00;;;2.13;;
53549;SDS011;73079;52.914;-0.982;2024-01-10T03:04:46;6.53;;;2.00;;
53549;SDS011;73079;52.914;-0.982;2024-01-10T03:07:15;13.18;;;2.95;;
53549;SDS011;73079;52.914;-0.982;2024-01-10T03:09:44;4.00;;;1.77;;
53549;SDS011;73079;52.914;-0.982;2024-01-10T03:12:12;8.30;;;2.72;;
53549;SDS011;73079;52.914;-0.982;2024-01-10T03:14:40;5.75;;;1.95;;
53549;SDS011;73079;52.914;-0.982;2024-01-10T03:17:11;7.40;;;2.15;;
53549;SDS011;73079;52.914;-0.982;2024-01-10T03:19:39;8.93;;;2.17;;
53549;SDS011;73079;52.914;-0.982;2024-01-10T03:22:12;3.00;;;1.40;;
53549;SDS011;73079;52.914;-0.982;2024-01-10T03:24:39;3.25;;;1.60;;
53549;SDS011;73079;52.914;-0.982;2024-01-10T03:27:05;3.72;;;1.55;;
53549;SDS011;73079;52.914;-0.982;2024-01-10T03:29:33;3.22;;;1.85;;
53549;SDS011;73079;52.914;-0.982;2024-01-10T03:32:02;5.57;;;1.92;;
53549;SDS011;73079;52.914;-0.982;2024-01-10T03:34:32;6.47;;;1.80;;
53549;SDS011;73079;52.914;-0.982;2024-01-10T03:36:58;6.35;;;1.88;;
53549;SDS011;73079;52.914;-0.982;2024-01-10T03:39:24;4.72;;;1.65;;
53549;SDS011;73079;52.914;-0.982;2024-01-10T03:41:49;4.38;;;1.80;;
53549;SDS011;73079;52.914;-0.982;2024-01-10T03:44:15;5.68;;;1.85;;
53549;SDS011;73079;52.914;-0.982;2024-01-10T03:46:42;8.88;;;1.67;;
53549;SDS011;73079;52.914;-0.982;2024-01-10T03:49:09;2.58;;;1.30;;
53549;SDS011;73079;52.914;-0.982;2024-01-10T03:51:36;5.50;;;1.63;;
53549;SDS011;73079;52.914;-0.982;2024-01-10T03:54:02;6.65;;;2.00;;
53549;SDS011;73079;52.914;-0.982;2024-01-10T03:56:28;6.50;;;1.58;;
53549;SDS011;73079;52.914;-0.982;2024-01-10T03:58:54;4.20;;;1.42;;
53549;SDS011;73079;52.914;-0.982;2024-01-10T04:01:21;6.88;;;1.77;;
53549;SDS011;73079;52.914;-0.982;2024-01-10T04:03:48;6.03;;;1.65;;
53549;SDS011;73079;52.914;-0.982;2024-01-10T04:06:14;7.05;;;2.20;;
53549;SDS011;73079;52.914;-0.982;2024-01-10T04:08:41;6.88;;;1.40;;
53549;SDS011;73079;52.914;-0.982;2024-01-10T04:11:07;4.25;;;1.50;;
53549;SDS011;73079;52.914;-0.982;2024-01-10T04:13:34;2.47;;;1.25;;
53549;SDS011;73079;52.914;-0.982;2024-01-10T04:16:00;4.45;;;1.55;;
53549;SDS011;73079;52.914;-0.982;2024-01-10T04:18:25;4.15;;;1.50;;
53549;SDS011;73079;52.914;-0.982;2024-01-10T04:20:51;4.65;;;1.50;;
53549;SDS011;73079;52.914;-0.982;2024-01-10T04:23:17;3.45;;;1.48;;
53549;SDS011;73079;52.914;-0.982;2024-01-10T04:25:44;4.20;;;1.48;;
53549;SDS011;73079;52.914;-0.982;2024-01-10T04:28:10;3.50;;;1.27;;
53549;SDS011;73079;52.914;-0.982;2024-01-10T04:30:35;2.72;;;0.90;;
53549;SDS011;73079;52.914;-0.982;2024-01-10T04:33:01;5.05;;;1.30;;
53549;SDS011;73079;52.914;-0.982;2024-01-10T04:35:27;4.57;;;1.17;;
53549;SDS011;73079;52.914;-0.982;2024-01-10T04:37:53;2.17;;;1.08;;
53549;SDS011;73079;52.914;-0.982;2024-01-10T04:40:18;5.70;;;1.20;;
53549;SDS011;73079;52.914;-0.982;2024-01-10T04:42:46;2.72;;;1.10;;
53549;SDS011;73079;52.914;-0.982;2024-01-10T04:45:11;5.03;;;1.45;;
53549;SDS011;73079;52.914;-0.982;2024-01-10T04:47:37;6.75;;;1.20;;
53549;SDS011;73079;52.914;-0.982;2024-01-10T04:50:03;7.00;;;1.40;;
53549;SDS011;73079;52.914;-0.982;2024-01-10T04:52:30;2.42;;;1.10;;
53549;SDS011;73079;52.914;-0.982;2024-01-10T04:54:55;2.88;;;1.00;;
53549;SDS011;73079;52.914;-0.982;2024-01-10T04:57:21;4.50;;;1.15;;
53549;SDS011;73079;52.914;-0.982;2024-01-10T04:59:48;3.50;;;1.27;;
53549;SDS011;73079;52.914;-0.982;2024-01-10T05:02:14;6.53;;;1.25;;
53549;SDS011;73079;52.914;-0.982;2024-01-10T05:04:40;3.70;;;1.30;;
53549;SDS011;73079;52.914;-0.982;2024-01-10T05:07:06;2.95;;;1.05;;
53549;SDS011;73079;52.914;-0.982;2024-01-10T05:09:31;3.85;;;1.10;;
53549;SDS011;73079;52.914;-0.982;2024-01-10T05:11:57;4.10;;;1.30;;
53549;SDS011;73079;52.914;-0.982;2024-01-10T05:14:23;1.10;;;0.98;;
53549;SDS011;73079;52.914;-0.982;2024-01-10T05:16:50;4.75;;;1.35;;
53549;SDS011;73079;52.914;-0.982;2024-01-10T05:19:17;5.60;;;1.23;;
53549;SDS011;73079;52.914;-0.982;2024-01-10T05:21:42;4.43;;;1.50;;
53549;SDS011;73079;52.914;-0.982;2024-01-10T05:24:08;4.97;;;1.58;;
53549;SDS011;73079;52.914;-0.982;2024-01-10T05:26:34;5.05;;;1.50;;
53549;SDS011;73079;52.914;-0.982;2024-01-10T05:29:00;7.15;;;1.30;;
53549;SDS011;73079;52.914;-0.982;2024-01-10T05:31:26;2.75;;;1.20;;
53549;SDS011;73079;52.914;-0.982;2024-01-10T05:33:53;1.20;;;1.10;;
53549;SDS011;73079;52.914;-0.982;2024-01-10T05:36:21;4.15;;;1.20;;
53549;SDS011;73079;52.914;-0.982;2024-01-10T05:38:47;2.05;;;1.15;;
53549;SDS011;73079;52.914;-0.982;2024-01-10T05:41:13;3.42;;;1.35;;
53549;SDS011;73079;52.914;-0.982;2024-01-10T05:43:39;3.58;;;1.40;;
53549;SDS011;73079;52.914;-0.982;2024-01-10T05:46:05;5.80;;;1.40;;
53549;SDS011;73079;52.914;-0.982;2024-01-10T05:48:31;1.70;;;1.10;;
53549;SDS011;73079;52.914;-0.982;2024-01-10T05:50:58;5.47;;;1.45;;
53549;SDS011;73079;52.914;-0.982;2024-01-10T05:53:24;6.47;;;1.40;;
53549;SDS011;73079;52.914;-0.982;2024-01-10T05:55:50;5.60;;;1.50;;
53549;SDS011;73079;52.914;-0.982;2024-01-10T05:58:16;3.58;;;1.20;;
53549;SDS011;73079;52.914;-0.982;2024-01-10T06:00:42;4.45;;;1.58;;
53549;SDS011;73079;52.914;-0.982;2024-01-10T06:03:08;2.25;;;1.20;;
53549;SDS011;73079;52.914;-0.982;2024-01-10T06:05:34;4.25;;;1.63;;
53549;SDS011;73079;52.914;-0.982;2024-01-10T06:08:01;3.45;;;1.20;;
53549;SDS011;73079;52.914;-0.982;2024-01-10T06:10:29;3.85;;;1.45;;
53549;SDS011;73079;52.914;-0.982;2024-01-10T06:12:55;4.05;;;1.38;;
53549;SDS011;73079;52.914;-0.982;2024-01-10T06:15:21;2.65;;;1.33;;
53549;SDS011;73079;52.914;-0.982;2024-01-10T06:17:47;4.82;;;1.25;;
53549;SDS011;73079;52.914;-0.982;2024-01-10T06:20:15;3.80;;;1.40;;
53549;SDS011;73079;52.914;-0.982;2024-01-10T06:22:40;3.78;;;1.65;;
53549;SDS011;73079;52.914;-0.982;2024-01-10T06:25:08;3.00;;;1.20;;
53549;SDS011;73079;52.914;-0.982;2024-01-10T06:27:34;2.60;;;1.73;;
53549;SDS011;73079;52.914;-0.982;2024-01-10T06:30:00;1.95;;;1.10;;
53549;SDS011;73079;52.914;-0.982;2024-01-10T06:32:26;4.88;;;1.48;;
53549;SDS011;73079;52.914;-0.982;2024-01-10T06:34:51;3.83;;;1.77;;
53549;SDS011;73079;52.914;-0.982;2024-01-10T06:37:18;3.05;;;1.67;;
53549;SDS011;73079;52.914;-0.982;2024-01-10T06:39:44;2.42;;;1.55;;
53549;SDS011;73079;52.914;-0.982;2024-01-10T06:42:11;7.38;;;2.05;;
53549;SDS011;73079;52.914;-0.982;2024-01-10T06:44:37;5.10;;;1.77;;
53549;SDS011;73079;52.914;-0.982;2024-01-10T06:47:03;2.00;;;1.33;;
53549;SDS011;73079;52.914;-0.982;2024-01-10T06:49:29;6.10;;;1.40;;
53549;SDS011;73079;52.914;-0.982;2024-01-10T06:51:54;4.20;;;2.08;;
53549;SDS011;73079;52.914;-0.982;2024-01-10T06:54:20;4.68;;;1.33;;
53549;SDS011;73079;52.914;-0.982;2024-01-10T06:56:46;3.65;;;1.48;;
53549;SDS011;73079;52.914;-0.982;2024-01-10T06:59:13;4.53;;;1.50;;
53549;SDS011;73079;52.914;-0.982;2024-01-10T07:01:39;2.97;;;1.65;;
53549;SDS011;73079;52.914;-0.982;2024-01-10T07:04:05;4.43;;;1.60;;
53549;SDS011;73079;52.914;-0.982;2024-01-10T07:06:30;5.10;;;1.13;;
53549;SDS011;73079;52.914;-0.982;2024-01-10T07:08:56;7.95;;;1.42;;
53549;SDS011;73079;52.914;-0.982;2024-01-10T07:11:23;4.25;;;1.40;;
53549;SDS011;73079;52.914;-0.982;2024-01-10T07:13:49;2.72;;;1.20;;
53549;SDS011;73079;52.914;-0.982;2024-01-10T07:16:16;6.88;;;1.73;;
53549;SDS011;73079;52.914;-0.982;2024-01-10T07:18:43;2.10;;;1.70;;
53549;SDS011;73079;52.914;-0.982;2024-01-10T07:21:10;4.03;;;1.83;;
53549;SDS011;73079;52.914;-0.982;2024-01-10T07:23:36;1.95;;;1.33;;
53549;SDS011;73079;52.914;-0.982;2024-01-10T07:26:05;5.53;;;1.58;;
53549;SDS011;73079;52.914;-0.982;2024-01-10T07:28:31;6.97;;;1.40;;
53549;SDS011;73079;52.914;-0.982;2024-01-10T07:30:58;7.07;;;1.27;;
53549;SDS011;73079;52.914;-0.982;2024-01-10T07:33:25;4.47;;;1.55;;
53549;SDS011;73079;52.914;-0.982;2024-01-10T07:35:51;7.68;;;1.45;;
53549;SDS011;73079;52.914;-0.982;2024-01-10T07:38:18;8.15;;;1.33;;
53549;SDS011;73079;52.914;-0.982;2024-01-10T07:40:43;6.43;;;1.42;;
53549;SDS011;73079;52.914;-0.982;2024-01-10T07:43:09;4.47;;;1.30;;
53549;SDS011;73079;52.914;-0.982;2024-01-10T07:45:36;6.00;;;1.45;;
53549;SDS011;73079;52.914;-0.982;2024-01-10T07:48:02;1.70;;;1.05;;
53549;SDS011;73079;52.914;-0.982;2024-01-10T07:50:29;3.47;;;1.55;;
53549;SDS011;73079;52.914;-0.982;2024-01-10T07:52:56;4.82;;;1.38;;
53549;SDS011;73079;52.914;-0.982;2024-01-10T07:55:23;4.93;;;1.42;;
53549;SDS011;73079;52.914;-0.982;2024-01-10T07:57:48;3.10;;;1.33;;
53549;SDS011;73079;52.914;-0.982;2024-01-10T08:00:15;2.13;;;1.20;;
53549;SDS011;73079;52.914;-0.982;2024-01-10T08:02:41;4.43;;;1.20;;
53549;SDS011;73079;52.914;-0.982;2024-01-10T08:05:07;2.58;;;1.10;;
53549;SDS011;73079;52.914;-0.982;2024-01-10T08:07:39;3.70;;;1.73;;
53549;SDS011;73079;52.914;-0.982;2024-01-10T08:10:05;2.60;;;1.20;;
53549;SDS011;73079;52.914;-0.982;2024-01-10T08:12:31;6.22;;;1.02;;
53549;SDS011;73079;52.914;-0.982;2024-01-10T08:14:57;0.88;;;0.73;;
53549;SDS011;73079;52.914;-0.982;2024-01-10T08:17:23;3.40;;;1.05;;
53549;SDS011;73079;52.914;-0.982;2024-01-10T08:19:49;2.55;;;1.00;;
53549;SDS011;73079;52.914;-0.982;2024-01-10T08:22:14;1.65;;;0.90;;
53549;SDS011;73079;52.914;-0.982;2024-01-10T08:24:42;2.65;;;1.00;;
53549;SDS011;73079;52.914;-0.982;2024-01-10T08:27:09;2.60;;;1.10;;
53549;SDS011;73079;52.914;-0.982;2024-01-10T08:29:35;3.30;;;1.88;;
53549;SDS011;73079;52.914;-0.982;2024-01-10T08:32:01;1.90;;;1.15;;
53549;SDS011;73079;52.914;-0.982;2024-01-10T08:34:29;2.40;;;1.40;;
53549;SDS011;73079;52.914;-0.982;2024-01-10T08:36:55;3.33;;;0.80;;
53549;SDS011;73079;52.914;-0.982;2024-01-10T08:39:20;1.60;;;1.20;;
53549;SDS011;73079;52.914;-0.982;2024-01-10T08:41:48;3.35;;;1.42;;
53549;SDS011;73079;52.914;-0.982;2024-01-10T08:44:14;4.03;;;1.90;;
53549;SDS011;73079;52.914;-0.982;2024-01-10T08:46:40;2.53;;;1.80;;
53549;SDS011;73079;52.914;-0.982;2024-01-10T08:49:06;3.80;;;2.25;;
53549;SDS011;73079;52.914;-0.982;2024-01-10T08:51:32;6.82;;;2.50;;
53549;SDS011;73079;52.914;-0.982;2024-01-10T08:53:58;4.60;;;2.63;;
53549;SDS011;73079;52.914;-0.982;2024-01-10T08:56:23;3.97;;;2.20;;
53549;SDS011;73079;52.914;-0.982;2024-01-10T08:58:50;2.78;;;2.38;;
53549;SDS011;73079;52.914;-0.982;2024-01-10T09:01:16;4.00;;;2.90;;
53549;SDS011;73079;52.914;-0.982;2024-01-10T09:03:42;8.13;;;3.78;;
53549;SDS011;73079;52.914;-0.982;2024-01-10T09:06:07;6.10;;;3.70;;
53549;SDS011;73079;52.914;-0.982;2024-01-10T09:08:33;9.23;;;4.70;;
53549;SDS011;73079;52.914;-0.982;2024-01-10T09:10:59;6.82;;;4.53;;
53549;SDS011;73079;52.914;-0.982;2024-01-10T09:13:25;5.88;;;3.90;;
53549;SDS011;73079;52.914;-0.982;2024-01-10T09:15:52;8.98;;;4.05;;
53549;SDS011;73079;52.914;-0.982;2024-01-10T09:18:18;6.35;;;3.80;;
53549;SDS011;73079;52.914;-0.982;2024-01-10T09:20:44;6.13;;;3.83;;
53549;SDS011;73079;52.914;-0.982;2024-01-10T09:23:09;4.30;;;3.33;;
53549;SDS011;73079;52.914;-0.982;2024-01-10T09:25:36;3.63;;;2.47;;
53549;SDS011;73079;52.914;-0.982;2024-01-10T09:28:03;4.97;;;3.40;;
53549;SDS011;73079;52.914;-0.982;2024-01-10T09:30:29;5.70;;;3.58;;
53549;SDS011;73079;52.914;-0.982;2024-01-10T09:32:56;10.15;;;4.65;;
53549;SDS011;73079;52.914;-0.982;2024-01-10T09:35:22;11.02;;;3.78;;
53549;SDS011;73079;52.914;-0.982;2024-01-10T09:37:48;5.22;;;3.72;;
53549;SDS011;73079;52.914;-0.982;2024-01-10T09:40:15;4.68;;;3.75;;
53549;SDS011;73079;52.914;-0.982;2024-01-10T09:42:41;6.70;;;3.65;;
53549;SDS011;73079;52.914;-0.982;2024-01-10T09:45:09;9.90;;;3.70;;
53549;SDS011;73079;52.914;-0.982;2024-01-10T09:47:38;6.05;;;4.13;;
53549;SDS011;73079;52.914;-0.982;2024-01-10T09:50:07;7.35;;;4.00;;
53549;SDS011;73079;52.914;-0.982;2024-01-10T09:52:33;8.40;;;4.30;;
53549;SDS011;73079;52.914;-0.982;2024-01-10T09:55:06;8.13;;;4.70;;
53549;SDS011;73079;52.914;-0.982;2024-01-10T09:57:34;7.18;;;4.07;;
53549;SDS011;73079;52.914;-0.982;2024-01-10T10:00:01;6.40;;;3.92;;
53549;SDS011;73079;52.914;-0.982;2024-01-10T10:02:32;5.78;;;3.80;;
53549;SDS011;73079;52.914;-0.982;2024-01-10T10:05:01;6.88;;;3.58;;
53549;SDS011;73079;52.914;-0.982;2024-01-10T10:07:30;9.63;;;5.05;;
53549;SDS011;73079;52.914;-0.982;2024-01-10T10:09:56;7.22;;;4.35;;
53549;SDS011;73079;52.914;-0.982;2024-01-10T10:12:22;8.27;;;4.75;;
53549;SDS011;73079;52.914;-0.982;2024-01-10T10:14:48;8.73;;;4.10;;
53549;SDS011;73079;52.914;-0.982;2024-01-10T10:17:14;8.23;;;4.95;;
53549;SDS011;73079;52.914;-0.982;2024-01-10T10:19:40;9.05;;;5.00;;
53549;SDS011;73079;52.914;-0.982;2024-01-10T10:22:07;9.43;;;5.03;;
53549;SDS011;73079;52.914;-0.982;2024-01-10T10:24:35;6.63;;;4.22;;
53549;SDS011;73079;52.914;-0.982;2024-01-10T10:27:01;8.95;;;4.47;;
53549;SDS011;73079;52.914;-0.982;2024-01-10T10:29:33;8.45;;;4.40;;
53549;SDS011;73079;52.914;-0.982;2024-01-10T10:32:00;6.50;;;4.53;;
53549;SDS011;73079;52.914;-0.982;2024-01-10T10:34:30;9.57;;;4.85;;
53549;SDS011;73079;52.914;-0.982;2024-01-10T10:36:56;7.68;;;4.93;;
53549;SDS011;73079;52.914;-0.982;2024-01-10T10:39:22;8.70;;;5.55;;
53549;SDS011;73079;52.914;-0.982;2024-01-10T10:41:49;7.82;;;4.53;;
53549;SDS011;73079;52.914;-0.982;2024-01-10T10:44:17;8.98;;;4.38;;
53549;SDS011;73079;52.914;-0.982;2024-01-10T10:46:47;8.05;;;3.42;;
53549;SDS011;73079;52.914;-0.982;2024-01-10T10:49:15;5.80;;;3.00;;
53549;SDS011;73079;52.914;-0.982;2024-01-10T10:51:43;5.13;;;3.22;;
53549;SDS011;73079;52.914;-0.982;2024-01-10T10:54:09;6.43;;;3.75;;
53549;SDS011;73079;52.914;-0.982;2024-01-10T10:56:37;6.68;;;2.90;;
53549;SDS011;73079;52.914;-0.982;2024-01-10T10:59:07;7.55;;;2.78;;
53549;SDS011;73079;52.914;-0.982;2024-01-10T11:01:34;5.78;;;2.60;;
53549;SDS011;73079;52.914;-0.982;2024-01-10T11:04:00;5.50;;;2.10;;
53549;SDS011;73079;52.914;-0.982;2024-01-10T11:06:27;4.57;;;2.10;;
53549;SDS011;73079;52.914;-0.982;2024-01-10T11:08:59;3.28;;;2.15;;
53549;SDS011;73079;52.914;-0.982;2024-01-10T11:11:34;4.80;;;2.42;;
53549;SDS011;73079;52.914;-0.982;2024-01-10T11:14:21;6.53;;;2.28;;
53549;SDS011;73079;52.914;-0.982;2024-01-10T11:17:02;2.95;;;2.00;;
53549;SDS011;73079;52.914;-0.982;2024-01-10T11:25:42;7.47;;;3.22;;
53549;SDS011;73079;52.914;-0.982;2024-01-10T11:28:07;7.40;;;3.42;;
53549;SDS011;73079;52.914;-0.982;2024-01-10T11:30:35;6.55;;;3.00;;
53549;SDS011;73079;52.914;-0.982;2024-01-10T11:33:20;11.05;;;3.20;;
53549;SDS011;73079;52.914;-0.982;2024-01-10T11:36:06;7.75;;;3.58;;
53549;SDS011;73079;52.914;-0.982;2024-01-10T11:38:38;8.35;;;2.83;;
53549;SDS011;73079;52.914;-0.982;2024-01-10T11:41:12;6.15;;;2.92;;
53549;SDS011;73079;52.914;-0.982;2024-01-10T11:43:40;4.72;;;2.90;;
53549;SDS011;73079;52.914;-0.982;2024-01-10T11:46:07;6.35;;;2.88;;
53549;SDS011;73079;52.914;-0.982;2024-01-10T11:48:33;6.78;;;2.88;;
53549;SDS011;73079;52.914;-0.982;2024-01-10T11:51:00;6.47;;;3.05;;
53549;SDS011;73079;52.914;-0.982;2024-01-10T11:53:38;5.50;;;2.30;;
53549;SDS011;73079;52.914;-0.982;2024-01-10T11:56:11;3.80;;;2.40;;
53549;SDS011;73079;52.914;-0.982;2024-01-10T11:58:54;7.88;;;2.47;;
53549;SDS011;73079;52.914;-0.982;2024-01-10T12:01:27;5.25;;;2.30;;
53549;SDS011;73079;52.914;-0.982;2024-01-10T12:03:53;3.72;;;2.25;;
53549;SDS011;73079;52.914;-0.982;2024-01-10T12:06:21;4.80;;;2.30;;
53549;SDS011;73079;52.914;-0.982;2024-01-10T12:08:47;6.45;;;2.47;;
53549;SDS011;73079;52.914;-0.982;2024-01-10T12:11:12;10.70;;;2.50;;
53549;SDS011;73079;52.914;-0.982;2024-01-10T12:13:38;5.97;;;2.15;;
53549;SDS011;73079;52.914;-0.982;2024-01-10T12:16:04;4.75;;;2.17;;
53549;SDS011;73079;52.914;-0.982;2024-01-10T12:18:32;5.07;;;2.47;;
53549;SDS011;73079;52.914;-0.982;2024-01-10T12:20:59;4.85;;;2.42;;
53549;SDS011;73079;52.914;-0.982;2024-01-10T12:23:24;5.97;;;2.55;;
53549;SDS011;73079;52.914;-0.982;2024-01-10T12:25:56;4.60;;;2.25;;
53549;SDS011;73079;52.914;-0.982;2024-01-10T12:28:22;4.30;;;1.92;;
53549;SDS011;73079;52.914;-0.982;2024-01-10T12:30:48;2.95;;;2.08;;
53549;SDS011;73079;52.914;-0.982;2024-01-10T12:33:14;4.15;;;2.20;;
53549;SDS011;73079;52.914;-0.982;2024-01-10T12:35:41;4.55;;;2.63;;
53549;SDS011;73079;52.914;-0.982;2024-01-10T12:38:09;6.72;;;2.88;;
53549;SDS011;73079;52.914;-0.982;2024-01-10T12:40:36;5.43;;;2.75;;
53549;SDS011;73079;52.914;-0.982;2024-01-10T12:43:02;4.70;;;2.80;;
53549;SDS011;73079;52.914;-0.982;2024-01-10T12:45:28;5.35;;;2.53;;
53549;SDS011;73079;52.914;-0.982;2024-01-10T12:47:54;7.00;;;2.78;;
53549;SDS011;73079;52.914;-0.982;2024-01-10T12:50:19;5.93;;;2.30;;
53549;SDS011;73079;52.914;-0.982;2024-01-10T12:52:47;7.75;;;2.58;;
53549;SDS011;73079;52.914;-0.982;2024-01-10T12:55:14;11.90;;;2.70;;
53549;SDS011;73079;52.914;-0.982;2024-01-10T12:57:39;6.53;;;2.67;;
53549;SDS011;73079;52.914;-0.982;2024-01-10T13:00:06;5.25;;;2.60;;
53549;SDS011;73079;52.914;-0.982;2024-01-10T13:02:33;4.63;;;2.38;;
53549;SDS011;73079;52.914;-0.982;2024-01-10T13:05:02;6.70;;;2.60;;
53549;SDS011;73079;52.914;-0.982;2024-01-10T13:07:28;3.85;;;2.22;;
53549;SDS011;73079;52.914;-0.982;2024-01-10T13:09:58;4.10;;;2.33;;
53549;SDS011;73079;52.914;-0.982;2024-01-10T13:12:23;6.47;;;2.78;;
53549;SDS011;73079;52.914;-0.982;2024-01-10T13:14:49;3.53;;;2.20;;
53549;SDS011;73079;52.914;-0.982;2024-01-10T13:17:15;5.20;;;2.33;;
53549;SDS011;73079;52.914;-0.982;2024-01-10T13:19:41;8.82;;;2.50;;
53549;SDS011;73079;52.914;-0.982;2024-01-10T13:22:10;6.03;;;2.70;;
53549;SDS011;73079;52.914;-0.982;2024-01-10T13:24:39;8.50;;;3.28;;
53549;SDS011;73079;52.914;-0.982;2024-01-10T13:27:06;5.28;;;2.92;;
53549;SDS011;73079;52.914;-0.982;2024-01-10T13:29:32;6.35;;;3.05;;
53549;SDS011;73079;52.914;-0.982;2024-01-10T13:31:59;10.82;;;4.03;;
53549;SDS011;73079;52.914;-0.982;2024-01-10T13:34:25;7.88;;;3.30;;
53549;SDS011;73079;52.914;-0.982;2024-01-10T13:36:51;5.50;;;3.50;;
53549;SDS011;73079;52.914;-0.982;2024-01-10T13:39:17;8.57;;;3.92;;
53549;SDS011;73079;52.914;-0.982;2024-01-10T13:41:42;8.52;;;3.97;;
53549;SDS011;73079;52.914;-0.982;2024-01-10T13:44:10;7.00;;;4.10;;
53549;SDS011;73079;52.914;-0.982;2024-01-10T13:46:36;10.95;;;4.00;;
53549;SDS011;73079;52.914;-0.982;2024-01-10T13:49:01;7.05;;;3.80;;
53549;SDS011;73079;52.914;-0.982;2024-01-10T13:51:27;8.35;;;4.80;;
53549;SDS011;73079;52.914;-0.982;2024-01-10T13:53:53;7.93;;;4.57;;
53549;SDS011;73079;52.914;-0.982;2024-01-10T13:56:18;6.00;;;4.65;;
53549;SDS011;73079;52.914;-0.982;2024-01-10T13:58:44;8.13;;;5.75;;
53549;SDS011;73079;52.914;-0.982;2024-01-10T14:01:11;7.32;;;5.10;;
53549;SDS011;73079;52.914;-0.982;2024-01-10T14:03:37;11.63;;;6.10;;
53549;SDS011;73079;52.914;-0.982;2024-01-10T14:06:03;8.05;;;6.28;;
53549;SDS011;73079;52.914;-0.982;2024-01-10T14:08:29;10.18;;;6.07;;
53549;SDS011;73079;52.914;-0.982;2024-01-10T14:10:55;10.13;;;6.57;;
53549;SDS011;73079;52.914;-0.982;2024-01-10T14:13:21;8.80;;;6.13;;
53549;SDS011;73079;52.914;-0.982;2024-01-10T14:15:48;10.15;;;6.55;;
53549;SDS011;73079;52.914;-0.982;2024-01-10T14:18:15;12.20;;;6.82;;
53549;SDS011;73079;52.914;-0.982;2024-01-10T14:20:41;11.45;;;7.00;;
53549;SDS011;73079;52.914;-0.982;2024-01-10T14:23:07;11.35;;;6.35;;
53549;SDS011;73079;52.914;-0.982;2024-01-10T14:25:32;15.98;;;7.25;;
53549;SDS011;73079;52.914;-0.982;2024-01-10T14:27:58;10.18;;;7.00;;
53549;SDS011;73079;52.914;-0.982;2024-01-10T14:30:25;10.52;;;6.82;;
53549;SDS011;73079;52.914;-0.982;2024-01-10T14:32:51;11.88;;;6.05;;
53549;SDS011;73079;52.914;-0.982;2024-01-10T14:35:18;11.50;;;5.63;;
53549;SDS011;73079;52.914;-0.982;2024-01-10T14:37:44;8.70;;;5.57;;